Terminal Aerodrome Forecast
Issued by NWS

Home | Current Version | Previous Version | Text Only | Print | Product List | Glossary On
Versions: 1 2 3 4 5 6 7 8 9 10 11 12 13 14 15 16 17 18 19 20 21 22 23
129
FTUS43 KIND 191640 AAB
TAFLAF
TAF AMD
KLAF 191640Z 1917/2012 22006KT P6SM FEW015 SCT250
     FM200600 16004KT 3SM BR SCT080
     FM200900 14004KT 3SM BR BKN015=

USA.gov is the U.S. government's official web portal to all federal, state and local government web resources and services.